Main page
METAR-TAF:

METAR-TAF

Airports :

Rajahmundry Airport

Rajahmundry, India

latitude: 17-06-37N, longitude: 81-49-06E, elevation: 46 m

Current weather observation

The report was made 3 hours and 36 minutes ago, at 16:00 UTC
Wind 5 kt from the South/Southeast
Temperature 29°C
Humidity 52%
Pressure 1009 hPa
Visibility: 6000 m
Scattered clouds at a height of 2000 ft

METAR: VORY 191600Z 15005KT 6000 SCT020 29/18 Q1009 NOSIG

Time: 01:06 (19:36 UTC)

Forecast

The report was made 11 hours and 36 minutes ago, at 08:00 UTC
Forecast valid from 19 at 09 UTC to 19 at 18 UTC
Wind 8 kt from the South/Southeast
Visibility: 6000 m
Few clouds at a height of 2000 ft
Scattered clouds at a height of 2500 ft
Becoming
from 19 at 12 UTC to 19 at 14 UTC
Wind kt from the North
Visibility: 3000 m
Scattered clouds at a height of 2000 ft
haze

TAF: VORY 190800Z 1909/1918 16008KT 6000 FEW020 SCT025 BECMG 1912/1914 00000KT 3000 HZ SCT020

Weather observations and forecasts of more than 4000 airports (METAR and TAF reports).

The available stations are represented by yellow and red dots on the map.

Hover mouse over dot to see the name of the station.

Then click to see weather observations and forecasts.

To change the map : click on the green buttons with a black cross to zoom in, on the green button with a dash to zoom out, or on the green arrows for adjacent maps.


METAR-TAF: